Time;durP1;ratioP1;P1;durP2;ratioP2;P2;SDS_P1;SDS_P2;PMS_P1;PMS_P2;Temp;Humidity;BMP_temperature;BMP_pressure;BME280_temperature;BME280_humidity;BME280_pressure;Samples;Min_cycle;Max_cycle;Signal;HPM_P1;HPM_P2
2022/05/01 00:00:27;;;;;;;2.70;1.90;;;8.60;1.40;;;9.79;100.00;95720.27;648122;216;32163;-73
2022/05/01 00:03:30;;;;;;;2.35;2.15;;;8.60;1.40;;;9.80;100.00;95714.12;646836;216;31631;-76
2022/05/01 00:05:59;;;;;;;2.90;2.10;;;8.60;1.40;;;9.85;100.00;95713.86;647388;216;32203;-77
2022/05/01 00:08:41;;;;;;;3.03;2.30;;;8.60;1.40;;;9.91;100.00;95710.41;620244;222;32263;-76
2022/05/01 00:11:25;;;;;;;3.70;2.47;;;8.60;1.40;;;9.85;100.00;95711.83;645549;213;31880;-73
2022/05/01 00:16:49;;;;;;;2.63;1.63;;;8.50;1.40;;;9.83;100.00;95708.77;620064;223;31893;-78
2022/05/01 00:19:37;;;;;;;5.60;3.40;;;8.50;1.40;;;9.85;100.00;95705.16;646302;216;31763;-74
2022/05/01 00:22:19;;;;;;;3.62;2.72;;;8.50;1.40;;;9.85;100.00;95706.79;646626;216;31689;-74
2022/05/01 00:25:07;;;;;;;3.20;1.80;;;8.50;1.40;;;9.84;100.00;95705.94;646601;216;32109;-77
2022/05/01 00:27:55;;;;;;;2.47;2.27;;;8.40;1.40;;;9.79;100.00;95704.02;646732;216;31578;-73
2022/05/01 00:30:37;;;;;;;4.18;2.53;;;8.40;1.40;;;9.80;100.00;95705.46;646704;216;31569;-74
2022/05/01 00:38:45;;;;;;;3.50;2.30;;;8.40;1.40;;;9.80;100.00;95697.50;620057;226;32034;-77
2022/05/01 00:41:30;;;;;;;3.90;3.60;;;8.40;1.40;;;9.88;100.00;95698.27;648000;216;31542;-72
2022/05/01 00:44:17;;;;;;;5.67;2.50;;;8.40;1.40;;;9.84;100.00;95701.72;645237;216;31752;-74
2022/05/01 00:47:04;;;;;;;2.40;2.20;;;8.40;1.40;;;9.83;100.00;95696.53;647897;212;31740;-75
2022/05/01 00:49:46;;;;;;;5.03;3.23;;;8.40;1.40;;;9.86;100.00;95702.70;648395;216;31554;-76
2022/05/01 00:52:34;;;;;;;4.93;2.70;;;8.40;1.40;;;9.85;100.00;95698.02;645826;216;31649;-74
2022/05/01 00:55:19;;;;;;;2.30;1.80;;;8.40;1.40;;;9.76;100.00;95698.53;645848;216;31597;-73
2022/05/01 00:58:01;;;;;;;3.50;2.37;;;8.40;1.40;;;9.94;100.00;95694.94;646305;216;31949;-73
2022/05/01 01:03:21;;;;;;;4.90;2.03;;;8.40;1.40;;;9.90;100.00;95698.09;647038;216;31540;-77
2022/05/01 01:06:09;;;;;;;3.83;3.50;;;8.40;1.40;;;9.87;100.00;95698.12;645688;216;31586;-73
2022/05/01 01:11:32;;;;;;;3.30;2.80;;;8.40;1.40;;;9.86;100.00;95687.96;619541;225;31898;-73
2022/05/01 01:14:15;;;;;;;3.27;2.57;;;8.40;1.40;;;9.88;100.00;95689.72;644949;212;31602;-74
2022/05/01 01:16:57;;;;;;;3.90;2.78;;;8.40;1.40;;;9.93;100.00;95689.16;647122;216;31565;-73
2022/05/01 01:19:39;;;;;;;3.47;2.03;;;8.40;1.40;;;9.97;100.00;95688.50;647111;216;31657;-76
2022/05/01 01:22:27;;;;;;;3.30;2.10;;;8.40;1.40;;;10.04;100.00;95690.73;646138;216;31603;-73
2022/05/01 01:25:10;;;;;;;5.10;3.90;;;8.40;1.40;;;10.00;100.00;95688.77;646546;216;32140;-73
2022/05/01 01:27:52;;;;;;;3.80;2.30;;;8.40;1.40;;;10.01;100.00;95685.84;647353;212;32454;-73
2022/05/01 01:35:53;;;;;;;3.05;2.28;;;8.30;1.40;;;9.75;100.00;95683.39;646943;214;31602;-75
2022/05/01 01:38:40;;;;;;;5.50;3.27;;;8.30;1.40;;;9.70;100.00;95680.48;647149;216;32301;-74
2022/05/01 01:41:22;;;;;;;6.50;2.60;;;8.30;1.40;;;9.70;100.00;95685.03;646248;212;32038;-74
2022/05/01 01:44:05;;;;;;;4.72;3.33;;;8.30;1.40;;;9.49;100.00;95684.39;645300;212;32319;-74
2022/05/01 01:46:49;;;;;;;3.30;2.60;;;8.20;1.40;;;9.37;100.00;95682.45;647650;212;31702;-76
2022/05/01 01:49:36;;;;;;;6.20;3.40;;;8.20;1.40;;;9.33;100.00;95679.00;646275;216;31549;-73
2022/05/01 01:52:18;;;;;;;5.50;3.37;;;8.20;1.40;;;9.30;100.00;95679.31;647121;216;42195;-73
2022/05/01 01:55:00;;;;;;;3.70;3.10;;;8.20;1.40;;;9.38;100.00;95677.52;645556;216;31602;-73
2022/05/01 01:57:44;;;;;;;3.30;2.80;;;8.20;1.40;;;9.47;100.00;95678.53;647196;212;32221;-76
2022/05/01 02:00:25;;;;;;;4.00;2.60;;;8.20;1.40;;;9.38;100.00;95681.47;647442;212;31686;-76
2022/05/01 02:03:10;;;;;;;4.07;2.40;;;8.20;1.40;;;9.37;100.00;95672.28;618813;226;31920;-73
2022/05/01 02:05:57;;;;;;;5.57;2.73;;;8.20;1.40;;;9.50;100.00;95672.89;646060;216;31510;-75
2022/05/01 02:08:47;;;;;;;3.50;3.20;;;8.20;1.40;;;9.48;100.00;95671.66;639878;216;31774;-73
2022/05/01 02:11:27;;;;;;;3.33;2.80;;;8.20;1.40;;;9.42;100.00;95672.33;646588;216;31674;-73
2022/05/01 02:14:10;;;;;;;2.13;1.80;;;8.20;1.40;;;9.28;100.00;95668.59;647816;212;31714;-74
2022/05/01 02:16:57;;;;;;;2.97;1.90;;;8.10;1.40;;;9.31;100.00;95670.09;642329;216;31564;-76
2022/05/01 02:19:38;;;;;;;3.10;2.80;;;8.10;1.40;;;9.40;100.00;95669.81;646889;212;31578;-77
2022/05/01 02:22:21;;;;;;;2.40;2.10;;;8.20;1.40;;;9.45;100.00;95670.82;647484;212;31604;-77
2022/05/01 02:25:01;;;;;;;4.90;2.60;;;8.20;1.40;;;9.47;100.00;95670.90;646478;216;31641;-77
2022/05/01 02:27:43;;;;;;;3.20;2.23;;;8.20;1.40;;;9.51;100.00;95671.73;619948;226;32038;-74
2022/05/01 02:30:30;;;;;;;4.10;3.27;;;8.30;1.40;;;9.37;100.00;95668.66;645526;216;31643;-74
2022/05/01 02:35:51;;;;;;;3.15;2.85;;;8.20;1.40;;;9.34;100.00;95660.38;646002;216;31574;-74
2022/05/01 02:38:39;;;;;;;2.50;2.30;;;8.20;1.40;;;9.39;100.00;95661.77;645892;216;31555;-74
2022/05/01 02:41:28;;;;;;;3.60;2.13;;;8.10;1.40;;;9.30;100.00;95659.44;646477;213;31612;-74
2022/05/01 02:44:15;;;;;;;4.45;2.75;;;8.10;1.40;;;9.26;100.00;95660.34;646962;216;32301;-75
2022/05/01 02:47:03;;;;;;;3.80;2.90;;;8.10;1.40;;;9.35;100.00;95664.67;645646;212;31606;-74
2022/05/01 02:52:25;;;;;;;3.70;1.97;;;8.10;1.40;;;9.23;100.00;95667.09;620628;222;31951;-73
2022/05/01 02:55:07;;;;;;;3.23;2.10;;;8.10;1.40;;;9.18;100.00;95662.61;646783;216;31573;-74
2022/05/01 02:57:50;;;;;;;4.50;2.70;;;8.10;1.40;;;9.16;100.00;95665.39;647710;216;31705;-74
2022/05/01 03:00:33;;;;;;;4.40;2.42;;;8.00;1.40;;;9.14;100.00;95664.72;620156;225;32213;-75
2022/05/01 03:03:15;;;;;;;3.30;2.60;;;8.10;1.40;;;9.14;100.00;95661.75;645769;212;31686;-76
2022/05/01 03:05:58;;;;;;;2.78;2.58;;;8.10;1.40;;;9.13;100.00;95662.19;647436;216;32150;-76
2022/05/01 03:08:40;;;;;;;4.62;3.22;;;8.00;1.40;;;9.12;100.00;95661.55;637664;216;31734;-74
2022/05/01 03:11:21;;;;;;;2.20;2.00;;;8.00;1.40;;;9.10;100.00;95661.92;646642;212;31851;-74
2022/05/01 03:14:10;;;;;;;4.40;3.10;;;8.00;1.40;;;9.03;100.00;95660.93;646623;212;31560;-74
2022/05/01 03:24:14;;;;;;;3.00;2.40;;;7.90;1.40;;;8.89;100.00;95658.05;646805;216;31589;-74
2022/05/01 03:27:01;;;;;;;3.03;2.73;;;7.80;1.40;;;8.83;100.00;95657.47;642397;215;31633;-75
2022/05/01 03:30:15;;;;;;;3.95;2.45;;;7.80;1.40;;;8.82;100.00;95656.62;647210;216;31606;-73
2022/05/01 03:32:42;;;;;;;3.33;3.10;;;7.80;1.40;;;8.80;100.00;95659.45;646619;212;31549;-75
2022/05/01 03:35:53;;;;;;;2.67;2.35;;;7.80;1.40;;;8.79;100.00;95656.16;646404;215;31650;-74
2022/05/01 03:38:36;;;;;;;2.60;2.40;;;7.70;1.40;;;8.83;100.00;95656.82;646693;216;32075;-77
2022/05/01 03:43:52;;;;;;;4.28;3.00;;;7.70;1.40;;;8.77;100.00;95657.97;647787;212;31563;-76
2022/05/01 03:46:38;;;;;;;2.97;2.78;;;7.70;1.40;;;8.76;100.00;95654.25;620585;222;32503;-75
2022/05/01 03:51:53;;;;;;;3.20;2.40;;;7.70;1.40;;;8.75;100.00;95656.27;646877;216;31598;-74
2022/05/01 03:54:36;;;;;;;3.27;2.90;;;7.60;1.40;;;8.77;100.00;95653.00;646824;216;31701;-74
2022/05/01 03:57:20;;;;;;;3.58;3.28;;;7.60;1.40;;;8.63;100.00;95652.74;647381;216;31558;-75
2022/05/01 04:00:04;;;;;;;5.63;2.53;;;7.60;1.40;;;8.67;100.00;95653.34;647623;216;31557;-75
2022/05/01 04:02:45;;;;;;;3.00;2.70;;;7.60;1.40;;;8.73;100.00;95659.28;648012;216;32951;-75
2022/05/01 04:05:34;;;;;;;3.10;2.40;;;7.60;1.40;;;8.83;100.00;95657.26;646028;216;31671;-73
2022/05/01 04:08:15;;;;;;;3.53;2.62;;;7.70;1.40;;;8.71;100.00;95658.50;643780;212;31827;-74
2022/05/01 04:10:56;;;;;;;4.10;2.33;;;7.50;1.40;;;8.62;100.00;95656.10;645603;216;31582;-73
2022/05/01 04:13:40;;;;;;;4.30;3.27;;;7.50;1.40;;;8.47;100.00;95656.61;647898;216;31916;-74
2022/05/01 04:16:22;;;;;;;1.50;1.27;;;7.40;1.40;;;8.37;100.00;95653.69;647365;212;31562;-76
2022/05/01 04:19:05;;;;;;;7.43;5.10;;;7.40;1.40;;;8.39;100.00;95652.70;646827;216;31658;-74
2022/05/01 04:21:46;;;;;;;4.57;3.13;;;7.40;1.40;;;8.43;100.00;95652.50;647135;216;31738;-75
2022/05/01 04:24:28;;;;;;;4.15;2.87;;;7.40;1.40;;;8.32;100.00;95651.20;647806;216;31586;-74
2022/05/01 04:27:15;;;;;;;5.28;2.75;;;7.40;1.40;;;8.19;100.00;95655.97;615145;226;31949;-74
2022/05/01 04:30:09;;;;;;;6.27;2.70;;;7.30;1.40;;;8.26;100.00;95660.39;647407;216;31574;-75
2022/05/01 04:38:33;;;;;;;2.43;2.20;;;7.30;1.40;;;8.14;100.00;95655.34;647474;212;31545;-73
2022/05/01 04:41:17;;;;;;;2.62;2.00;;;7.30;1.40;;;8.16;100.00;95656.89;646476;216;31607;-74
2022/05/01 04:43:57;;;;;;;3.83;2.77;;;7.30;1.40;;;8.19;100.00;95657.48;647248;216;31573;-73
2022/05/01 04:46:38;;;;;;;3.37;2.23;;;7.30;1.40;;;8.22;100.00;95658.97;646160;216;31626;-75
2022/05/01 04:49:26;;;;;;;5.43;3.40;;;7.30;1.40;;;8.28;100.00;95663.29;647312;216;32818;-74
2022/05/01 04:52:14;;;;;;;5.18;3.55;;;7.30;1.40;;;8.28;100.00;95662.75;646076;212;31562;-74
2022/05/01 04:55:01;;;;;;;6.50;3.62;;;7.30;1.40;;;8.32;100.00;95666.33;647596;216;42215;-76
2022/05/01 04:57:43;;;;;;;5.40;3.40;;;7.30;1.40;;;8.32;100.00;95666.33;645685;212;31595;-77
2022/05/01 05:00:25;;;;;;;4.95;3.80;;;7.30;1.40;;;8.29;100.00;95669.27;646767;212;31632;-75
2022/05/01 05:03:07;;;;;;;6.10;3.33;;;7.30;1.40;;;8.35;100.00;95665.73;618964;226;31922;-75
2022/05/01 05:05:49;;;;;;;5.90;3.70;;;7.30;1.40;;;8.38;100.00;95672.59;619602;226;31869;-77
2022/05/01 05:11:32;;;;;;;3.00;2.50;;;7.30;1.40;;;8.45;100.00;95674.69;647384;212;31657;-75
2022/05/01 05:14:14;;;;;;;5.50;3.23;;;7.30;1.40;;;8.45;100.00;95677.27;647149;212;31709;-76
2022/05/01 05:16:57;;;;;;;3.07;2.77;;;7.30;1.40;;;8.38;100.00;95678.42;647032;212;31891;-77
2022/05/01 05:19:39;;;;;;;5.80;3.85;;;7.30;1.40;;;8.49;100.00;95677.95;647695;216;31587;-75
2022/05/01 05:22:19;;;;;;;5.60;3.23;;;7.40;1.40;;;8.61;100.00;95683.03;642128;217;31541;-74
2022/05/01 05:25:04;;;;;;;5.50;3.20;;;7.40;1.40;;;8.77;100.00;95681.70;648210;212;32847;-75
2022/05/01 05:27:47;;;;;;;5.50;3.47;;;7.50;1.40;;;8.66;100.00;95683.79;646190;216;31571;-74
2022/05/01 05:30:28;;;;;;;4.75;3.22;;;7.50;1.40;;;8.61;100.00;95686.60;647800;212;31745;-77
2022/05/01 05:38:28;;;;;;;5.77;3.53;;;7.30;1.40;;;8.34;100.00;95694.31;645655;216;31738;-73
2022/05/01 05:41:10;;;;;;;5.70;3.77;;;7.40;1.40;;;8.37;100.00;95694.59;646494;215;31580;-73
2022/05/01 05:43:51;;;;;;;4.67;2.90;;;7.40;1.40;;;8.38;100.00;95692.91;645666;212;31561;-74
2022/05/01 05:46:39;;;;;;;3.90;3.07;;;7.40;1.40;;;8.21;100.00;95699.97;647035;216;31575;-76
2022/05/01 05:49:21;;;;;;;3.33;3.03;;;7.30;1.40;;;8.28;100.00;95694.45;647502;216;31593;-75
2022/05/01 05:52:03;;;;;;;6.67;2.73;;;7.30;1.40;;;8.19;100.00;95697.02;646303;212;31701;-76
2022/05/01 05:54:52;;;;;;;7.10;4.40;;;7.30;1.40;;;8.14;100.00;95698.70;646014;212;42238;-73
2022/05/01 05:57:37;;;;;;;7.73;3.97;;;7.30;1.40;;;8.12;100.00;95699.21;646264;216;31588;-73
2022/05/01 06:00:19;;;;;;;4.85;3.60;;;7.30;1.40;;;8.08;100.00;95699.47;646554;212;32206;-72
2022/05/01 06:03:01;;;;;;;4.78;3.37;;;7.30;1.40;;;8.08;100.00;95700.11;619765;226;42697;-74
2022/05/01 06:05:42;;;;;;;4.37;3.70;;;7.30;1.40;;;8.08;100.00;95697.52;646468;216;31593;-73
2022/05/01 06:08:27;;;;;;;6.60;2.80;;;7.30;1.40;;;8.10;100.00;95696.58;640927;216;31786;-73
2022/05/01 06:11:44;;;;;;;6.62;5.00;;;7.40;1.40;;;8.12;100.00;95697.00;646599;216;31789;-75
2022/05/01 06:14:26;;;;;;;5.63;2.57;;;7.40;1.40;;;8.20;100.00;95700.03;619470;226;32594;-73
2022/05/01 06:17:08;;;;;;;5.13;3.10;;;7.40;1.40;;;8.21;100.00;95701.16;647393;216;32105;-74
2022/05/01 06:19:49;;;;;;;3.63;2.80;;;7.40;1.40;;;8.22;100.00;95701.37;647161;212;32227;-76
2022/05/01 06:22:31;;;;;;;5.40;3.67;;;7.40;1.40;;;8.35;100.00;95706.90;647404;216;32435;-73
2022/05/01 06:25:15;;;;;;;6.07;3.80;;;7.50;1.40;;;8.56;100.00;95715.25;647006;212;31660;-76
2022/05/01 06:28:03;;;;;;;4.93;3.75;;;7.60;1.40;;;8.43;100.00;95713.39;645994;216;32072;-73
2022/05/01 06:30:45;;;;;;;5.80;3.63;;;7.50;1.40;;;8.43;100.00;95713.99;646446;216;31616;-73
2022/05/01 06:35:51;;;;;;;4.47;3.45;;;7.50;1.40;;;8.60;100.00;95713.04;646452;216;31591;-73
2022/05/01 06:38:32;;;;;;;6.17;4.37;;;7.60;1.40;;;8.65;100.00;95718.83;646583;215;32268;-74
2022/05/01 06:41:14;;;;;;;6.57;3.97;;;7.70;1.40;;;8.61;100.00;95721.47;644448;212;31669;-73
2022/05/01 06:43:56;;;;;;;4.70;4.30;;;7.60;1.40;;;8.51;100.00;95724.94;647103;216;31708;-73
2022/05/01 06:46:38;;;;;;;6.93;4.18;;;7.50;1.40;;;8.45;100.00;95720.67;619143;222;31922;-73
2022/05/01 06:49:19;;;;;;;9.00;3.73;;;7.50;1.40;;;8.48;100.00;95722.70;646065;212;31543;-74
2022/05/01 06:52:01;;;;;;;4.40;4.00;;;7.50;1.40;;;8.61;100.00;95722.92;645763;212;31556;-72
2022/05/01 06:54:43;;;;;;;6.70;2.93;;;7.50;1.40;;;8.75;100.00;95728.92;646647;216;31567;-73
2022/05/01 06:57:25;;;;;;;5.87;4.10;;;7.60;1.40;;;8.91;100.00;95730.26;646180;212;31610;-73
2022/05/01 07:00:07;;;;;;;4.80;3.30;;;7.80;1.40;;;9.02;100.00;95734.72;645548;216;31618;-73
2022/05/01 07:02:49;;;;;;;6.43;3.10;;;7.80;1.40;;;8.96;100.00;95730.84;646434;216;32190;-73
2022/05/01 07:05:31;;;;;;;4.80;4.30;;;7.90;1.40;;;9.08;100.00;95738.27;646221;216;32554;-72
2022/05/01 07:08:12;;;;;;;5.70;4.40;;;8.00;1.40;;;9.29;100.00;95741.20;643918;216;32370;-73
2022/05/01 07:10:54;;;;;;;3.90;3.50;;;8.00;1.40;;;9.27;100.00;95743.11;646424;216;31718;-73
2022/05/01 07:13:36;;;;;;;3.57;2.93;;;8.00;1.40;;;9.35;100.00;95743.20;648110;212;31641;-75
2022/05/01 07:16:19;;;;;;;6.37;4.40;;;8.00;1.40;;;9.40;100.00;95744.49;646770;216;32085;-73
2022/05/01 07:18:59;;;;;;;5.10;4.30;;;8.00;1.40;;;9.42;100.00;95740.41;646403;216;31692;-73
2022/05/01 07:21:44;;;;;;;5.60;3.60;;;8.10;1.40;;;9.48;100.00;95738.98;647062;216;31553;-72
2022/05/01 07:24:26;;;;;;;3.57;2.87;;;8.20;1.40;;;9.54;100.00;95739.52;646735;216;31553;-72
2022/05/01 07:27:07;;;;;;;5.20;4.23;;;8.20;1.40;;;9.55;100.00;95740.37;646544;216;31596;-74
2022/05/01 07:29:49;;;;;;;4.33;2.77;;;8.20;1.40;;;9.50;100.00;95742.88;619796;226;31935;-72
2022/05/01 07:32:31;;;;;;;4.10;3.40;;;8.20;1.40;;;9.58;100.00;95747.32;618402;226;31920;-73
2022/05/01 07:35:51;;;;;;;6.25;3.10;;;8.20;1.40;;;9.41;100.00;95745.77;631375;221;31974;-72
2022/05/01 07:38:33;;;;;;;4.97;3.57;;;8.20;1.40;;;9.43;100.00;95740.18;647176;216;31601;-73
2022/05/01 07:41:16;;;;;;;5.03;3.80;;;8.30;1.40;;;9.51;100.00;95741.94;646008;216;31999;-74
2022/05/01 07:43:57;;;;;;;4.87;2.57;;;8.30;1.40;;;9.62;100.00;95738.39;646430;216;31602;-73
2022/05/01 07:46:39;;;;;;;3.67;3.10;;;8.40;1.40;;;9.90;100.00;95740.50;646606;216;31551;-72
2022/05/01 07:49:24;;;;;;;4.77;3.73;;;8.40;1.40;;;9.82;100.00;95739.70;646000;216;31575;-72
2022/05/01 07:52:07;;;;;;;5.03;4.43;;;8.50;1.40;;;9.82;100.00;95738.24;647049;216;31570;-73
2022/05/01 07:54:53;;;;;;;4.43;4.03;;;8.40;1.40;;;9.78;100.00;95741.88;646340;216;31580;-72
2022/05/01 07:57:35;;;;;;;4.87;4.27;;;8.40;1.40;;;9.72;100.00;95744.12;645398;212;32145;-73
2022/05/01 08:00:17;;;;;;;6.12;4.53;;;8.30;1.40;;;9.65;100.00;95751.18;645538;212;32208;-73
2022/05/01 08:05:46;;;;;;;5.87;4.30;;;8.20;1.40;;;9.60;100.00;95747.63;646001;216;31607;-73
2022/05/01 08:08:33;;;;;;;5.00;3.13;;;8.30;1.40;;;9.59;100.00;95748.34;640999;216;31824;-73
2022/05/01 08:11:13;;;;;;;4.63;4.23;;;8.30;1.40;;;9.46;100.00;95750.09;646879;212;31710;-73
2022/05/01 08:13:54;;;;;;;4.82;3.50;;;8.30;1.40;;;9.64;100.00;95749.41;647456;216;42662;-72
2022/05/01 08:16:36;;;;;;;4.18;2.87;;;8.30;1.40;;;9.64;100.00;95746.91;647166;216;31695;-73
2022/05/01 08:22:08;;;;;;;5.60;3.90;;;8.40;1.40;;;9.94;100.00;95746.93;646338;216;31552;-72
2022/05/01 08:24:50;;;;;;;5.25;4.53;;;8.50;1.40;;;10.05;100.00;95748.48;646532;212;31584;-72
2022/05/01 08:27:34;;;;;;;5.05;2.95;;;8.60;1.40;;;9.91;100.00;95748.22;646167;213;31564;-72
2022/05/01 08:30:16;;;;;;;5.00;4.33;;;8.60;1.40;;;9.87;100.00;95753.64;646323;212;32349;-73
2022/05/01 08:32:58;;;;;;;3.92;3.47;;;8.60;1.40;;;10.01;100.00;95754.25;648014;212;31608;-73
2022/05/01 08:35:51;;;;;;;6.07;3.67;;;8.70;1.40;;;10.16;100.00;95756.66;646881;216;31905;-72
2022/05/01 08:38:32;;;;;;;5.27;3.73;;;8.70;1.40;;;10.26;100.00;95756.83;646339;216;31615;-72
2022/05/01 08:41:15;;;;;;;5.87;3.90;;;8.90;1.40;;;10.03;100.00;95758.72;646522;212;31597;-74
2022/05/01 08:43:57;;;;;;;7.90;4.90;;;8.70;1.40;;;10.24;100.00;95760.88;647720;216;31575;-72
2022/05/01 08:46:54;;;;;;;6.40;3.97;;;8.90;1.40;;;9.89;100.00;95763.20;619768;222;31860;-79
2022/05/01 08:49:37;;;;;;;4.87;3.47;;;8.40;1.40;;;9.64;100.00;95763.05;645440;212;31677;-72
2022/05/01 08:52:20;;;;;;;6.23;4.23;;;8.30;1.40;;;9.68;100.00;95761.94;647244;216;32304;-72
2022/05/01 08:55:01;;;;;;;6.17;4.30;;;8.40;1.40;;;10.08;100.00;95758.56;646928;212;32160;-72
2022/05/01 08:57:42;;;;;;;6.30;4.10;;;8.90;1.40;;;10.52;100.00;95756.48;645585;216;32090;-72
2022/05/01 09:00:24;;;;;;;9.20;4.97;;;9.10;1.40;;;10.87;100.00;95750.34;647011;216;32282;-72
2022/05/01 09:03:06;;;;;;;6.37;4.75;;;9.40;1.40;;;11.27;100.00;95750.14;646549;216;42941;-73
2022/05/01 09:05:48;;;;;;;6.50;4.60;;;9.60;1.40;;;11.18;100.00;95754.39;645602;216;31567;-72
2022/05/01 09:08:29;;;;;;;7.20;4.70;;;9.50;1.40;;;11.41;100.00;95754.95;642079;216;31727;-73
2022/05/01 09:14:01;;;;;;;7.53;3.53;;;10.00;1.40;;;11.73;100.00;95755.20;646338;216;32362;-73
2022/05/01 09:16:44;;;;;;;4.73;4.20;;;10.00;1.40;;;11.81;100.00;95754.84;646557;216;31566;-73
2022/05/01 09:19:30;;;;;;;5.22;3.67;;;10.00;1.40;;;11.68;100.00;95752.36;646978;216;31624;-73
2022/05/01 09:22:12;;;;;;;5.53;4.60;;;9.90;1.40;;;11.88;100.00;95755.89;646821;216;31710;-73
2022/05/01 09:24:54;;;;;;;8.00;3.87;;;10.10;1.40;;;11.82;100.00;95753.41;646332;212;32198;-72
2022/05/01 09:27:36;;;;;;;7.35;4.30;;;9.80;1.40;;;12.06;100.00;95748.50;646868;216;31716;-72
2022/05/01 09:30:21;;;;;;;5.32;4.75;;;10.00;1.40;;;12.00;100.00;95753.48;646370;216;42207;-72
2022/05/01 09:33:02;;;;;;;5.33;4.20;;;10.10;1.40;;;12.29;100.00;95749.33;645444;216;31630;-72
2022/05/01 09:35:51;;;;;;;6.78;4.28;;;10.40;1.40;;;12.12;100.00;95747.20;645788;216;42652;-73
2022/05/01 09:38:33;;;;;;;6.40;4.53;;;10.30;1.40;;;11.91;100.00;95750.04;645951;216;31681;-73
2022/05/01 09:41:17;;;;;;;4.90;3.00;;;10.10;1.40;;;12.02;100.00;95752.23;646287;216;31854;-73
2022/05/01 09:44:00;;;;;;;6.35;3.67;;;10.10;1.40;;;12.09;100.00;95746.39;646833;212;31753;-73
2022/05/01 09:46:44;;;;;;;6.05;3.90;;;10.30;1.40;;;12.26;100.00;95743.93;646122;216;31622;-72
2022/05/01 09:49:26;;;;;;;5.13;4.20;;;10.40;1.40;;;12.22;100.00;95744.45;646925;212;31616;-73
2022/05/01 09:52:11;;;;;;;6.90;4.17;;;10.40;1.40;;;12.14;100.00;95741.16;646726;216;31553;-73
2022/05/01 09:55:02;;;;;;;4.67;4.17;;;10.50;1.40;;;12.46;100.00;95742.37;646198;216;31595;-72
2022/05/01 09:57:43;;;;;;;4.83;4.37;;;10.70;1.40;;;12.41;100.00;95738.72;646537;216;31583;-73
2022/05/01 10:00:37;;;;;;;6.60;3.77;;;10.70;1.40;;;12.39;100.00;95739.14;646601;216;33259;-73
2022/05/01 10:03:27;;;;;;;4.80;3.90;;;10.60;1.40;;;12.58;100.00;95736.41;621411;226;32088;-79
2022/05/01 10:06:11;;;;;;;4.50;3.27;;;10.70;1.40;;;12.84;100.00;95736.56;645940;216;31991;-72
2022/05/01 10:08:52;;;;;;;5.57;3.80;;;10.90;1.40;;;12.91;100.00;95733.08;638946;216;42583;-72
2022/05/01 10:11:34;;;;;;;6.20;3.40;;;11.10;1.40;;;13.57;100.00;95730.77;647206;212;31892;-73
2022/05/01 10:14:15;;;;;;;6.25;4.72;;;11.60;1.40;;;13.34;100.00;95730.58;647029;216;31518;-72
2022/05/01 10:19:34;;;;;;;6.20;4.53;;;11.60;1.40;;;13.36;100.00;95724.79;646140;212;31554;-74
2022/05/01 10:22:16;;;;;;;5.10;3.53;;;11.50;1.40;;;12.95;100.00;95726.81;647302;216;42202;-73
2022/05/01 10:24:57;;;;;;;6.10;3.72;;;11.20;1.40;;;12.94;100.00;95721.23;646550;216;42190;-73
2022/05/01 10:27:42;;;;;;;4.15;3.85;;;11.20;1.40;;;12.79;100.00;95723.83;646520;216;41106;-73
2022/05/01 10:36:08;;;;;;;6.15;4.25;;;11.30;1.40;;;13.10;100.00;95718.15;645877;215;31904;-73
2022/05/01 10:38:58;;;;;;;4.53;4.05;;;11.20;1.40;;;12.68;100.00;95713.02;646376;212;37388;-73
2022/05/01 10:41:43;;;;;;;5.47;3.97;;;11.10;1.40;;;13.13;100.00;95711.70;646486;216;31589;-73
2022/05/01 10:44:30;;;;;;;6.68;3.42;;;11.40;1.40;;;13.59;100.00;95712.30;645784;216;36908;-72
2022/05/01 10:47:13;;;;;;;6.93;4.22;;;11.90;1.40;;;14.49;100.00;95706.41;646991;216;32039;-73
2022/05/01 10:49:55;;;;;;;4.63;3.63;;;12.50;1.40;;;14.41;100.00;95708.18;645043;212;32210;-74
2022/05/01 10:52:36;;;;;;;7.78;4.90;;;12.80;1.40;;;14.46;100.00;95703.43;647069;216;33015;-72
2022/05/01 10:55:17;;;;;;;5.87;4.22;;;12.90;1.40;;;15.13;100.00;95698.78;645858;216;32008;-73
2022/05/01 10:58:17;;;;;;;6.68;4.50;;;13.40;1.40;;;16.21;98.78;95695.34;646493;216;31613;-73
2022/05/01 11:01:00;;;;;;;6.75;4.55;;;14.10;1.40;;;17.00;96.53;95690.67;646537;212;31761;-73
2022/05/01 11:03:43;;;;;;;7.10;3.37;;;14.80;1.40;;;16.95;82.83;95688.84;646210;216;31778;-73
2022/05/01 11:06:25;;;;;;;4.75;3.30;;;14.60;1.40;;;17.57;82.67;95687.77;645566;216;31564;-73
2022/05/01 11:09:06;;;;;;;5.95;4.03;;;14.50;1.40;;;17.93;80.06;95685.33;646127;212;31555;-74
2022/05/01 11:11:56;;;;;;;4.78;3.92;;;14.70;1.40;;;18.21;83.19;95683.44;645600;216;31625;-73
2022/05/01 11:17:12;;;;;;;4.78;3.72;;;14.90;1.40;;;18.03;74.86;95678.61;646755;212;31876;-73
2022/05/01 11:19:56;;;;;;;3.90;3.00;;;14.90;1.40;;;17.82;76.17;95677.86;619201;225;31955;-73
2022/05/01 11:22:36;;;;;;;3.53;3.22;;;15.30;1.40;;;19.28;69.84;95668.91;645376;216;31537;-73
2022/05/01 11:25:20;;;;;;;5.62;3.95;;;16.30;1.40;;;19.78;70.99;95664.19;646418;216;31563;-73
2022/05/01 11:28:01;;;;;;;5.00;3.12;;;16.60;1.40;;;19.18;61.94;95664.56;646085;216;31583;-72
2022/05/01 11:30:43;;;;;;;3.15;2.60;;;16.60;1.40;;;20.07;64.60;95666.86;619206;226;42922;-73
2022/05/01 11:36:05;;;;;;;5.40;4.00;;;15.80;1.40;;;20.18;65.79;95661.71;646711;216;31723;-74
2022/05/01 11:38:53;;;;;;;6.00;4.17;;;16.60;1.40;;;20.65;61.26;95656.59;646283;216;31621;-73
2022/05/01 11:41:39;;;;;;;5.57;3.87;;;17.30;1.40;;;21.55;59.95;95654.31;647073;216;31664;-73
2022/05/01 11:44:22;;;;;;;5.60;3.90;;;18.40;1.40;;;23.11;56.79;95653.03;645802;216;33480;-73
2022/05/01 11:47:03;;;;;;;5.37;4.20;;;18.80;1.40;;;24.07;53.97;95643.80;618962;225;32046;-74
2022/05/01 11:49:45;;;;;;;5.45;4.15;;;19.50;1.40;;;24.46;53.82;95643.08;646183;212;31751;-74
2022/05/01 11:52:26;;;;;;;8.07;5.18;;;20.00;1.40;;;23.98;48.52;95639.27;646365;216;31501;-74
2022/05/01 11:55:08;;;;;;;7.57;4.53;;;19.00;1.40;;;23.30;52.92;95635.89;647172;216;31869;-73
2022/05/01 12:03:32;;;;;;;7.00;5.30;;;19.80;1.40;;;24.46;49.67;95625.91;646626;216;42179;-73
2022/05/01 12:06:13;;;;;;;6.62;5.62;;;19.80;1.40;;;23.90;48.19;95625.79;648054;216;31643;-74
2022/05/01 12:08:55;;;;;;;6.85;5.85;;;18.20;1.40;;;22.99;52.54;95628.02;613198;226;32544;-74
2022/05/01 12:11:37;;;;;;;7.12;5.43;;;18.30;1.40;;;23.42;51.37;95631.48;631579;221;31993;-74
2022/05/01 12:14:18;;;;;;;7.53;5.12;;;17.30;1.40;;;21.05;59.16;95628.55;646666;216;31607;-74
2022/05/01 12:17:00;;;;;;;6.65;5.18;;;16.60;1.40;;;21.31;62.91;95625.45;647757;216;31570;-75
2022/05/01 12:19:44;;;;;;;6.80;4.72;;;16.60;1.40;;;21.03;60.18;95631.98;645530;216;42762;-74
2022/05/01 12:22:37;;;;;;;7.67;4.90;;;16.10;1.40;;;19.96;66.93;95631.62;646578;216;31575;-73
2022/05/01 12:25:14;;;;;;;5.50;4.00;;;15.70;1.40;;;19.95;63.76;95631.25;646582;216;32462;-74
2022/05/01 12:27:54;;;;;;;6.90;5.30;;;15.50;1.40;;;19.42;68.27;95631.63;646679;216;31790;-73
2022/05/01 12:30:36;;;;;;;9.05;5.07;;;15.60;1.40;;;19.00;65.23;95634.66;645558;216;31835;-74
2022/05/01 12:35:56;;;;;;;7.25;4.68;;;15.40;1.40;;;18.63;67.12;95629.34;647066;216;42766;-73
2022/05/01 12:38:38;;;;;;;6.75;4.57;;;15.10;1.40;;;18.66;70.81;95629.15;646495;212;32090;-75
2022/05/01 12:44:09;;;;;;;6.20;5.18;;;15.80;1.40;;;19.24;73.13;95621.36;647898;216;42837;-74
2022/05/01 12:46:52;;;;;;;5.57;4.30;;;15.90;1.40;;;19.98;68.42;95618.11;646526;216;32023;-74
2022/05/01 12:49:34;;;;;;;7.20;4.43;;;16.40;1.40;;;20.91;66.82;95611.72;645849;212;31774;-73
2022/05/01 12:52:35;;;;;;;6.03;4.50;;;17.10;1.40;;;22.38;60.35;95611.89;646233;216;31964;-74
2022/05/01 12:55:21;;;;;;;6.18;4.37;;;18.00;1.40;;;23.42;53.02;95604.16;647024;216;31758;-74
2022/05/01 12:58:02;;;;;;;6.10;4.90;;;19.40;1.40;;;19.81;59.11;95611.27;646007;216;32120;-73
2022/05/01 13:00:44;;;;;;;8.93;4.80;;;17.30;1.40;;;21.46;55.48;95608.23;646435;216;39263;-74
2022/05/01 13:03:36;;;;;;;5.50;4.53;;;17.10;1.40;;;22.26;58.27;95610.42;647612;216;31585;-74
2022/05/01 13:06:15;;;;;;;5.85;4.35;;;17.10;1.40;;;20.47;62.71;95608.20;647147;216;31823;-74